Time;durP1;ratioP1;P1;durP2;ratioP2;P2;SDS_P1;SDS_P2;PMS_P1;PMS_P2;Temp;Humidity;BMP_temperature;BMP_pressure;BME280_temperature;BME280_humidity;BME280_pressure;Samples;Min_cycle;Max_cycle;Signal;HPM_P1;HPM_P2
2022/03/18 00:02:14;;;;;;;55.40;50.07;;;7.90;99.90;;;;;;5045315;28;20636;-84
2022/03/18 00:04:42;;;;;;;53.97;48.47;;;8.20;99.90;;;;;;5034819;28;21238;-84
2022/03/18 00:07:10;;;;;;;52.63;47.43;;;7.90;99.90;;;;;;5044529;28;20610;-85
2022/03/18 00:09:36;;;;;;;51.27;46.37;;;8.20;99.90;;;;;;5037235;28;20661;-85
2022/03/18 00:12:03;;;;;;;48.67;44.00;;;8.00;99.90;;;;;;5045710;28;20664;-84
2022/03/18 00:14:30;;;;;;;48.37;44.10;;;8.20;99.90;;;;;;5039746;28;20632;-84
2022/03/18 00:16:58;;;;;;;44.03;39.97;;;8.30;99.90;;;;;;5042096;28;20644;-83
2022/03/18 00:19:27;;;;;;;43.73;39.70;;;8.30;99.90;;;;;;5039610;28;20707;-84
2022/03/18 00:22:01;;;;;;;43.43;39.43;;;8.20;99.90;;;;;;5037163;28;20629;-84
2022/03/18 00:24:28;;;;;;;45.73;41.67;;;8.40;99.90;;;;;;5048014;28;20630;-85
2022/03/18 00:26:56;;;;;;;44.23;40.30;;;8.40;99.90;;;;;;5038293;28;20641;-85
2022/03/18 00:29:23;;;;;;;41.00;37.20;;;7.90;99.90;;;;;;5045643;28;20640;-84
2022/03/18 00:31:50;;;;;;;43.33;39.47;;;8.40;99.90;;;;;;5047625;28;20666;-84
2022/03/18 00:34:17;;;;;;;41.00;37.37;;;8.40;99.90;;;;;;5040984;28;21204;-84
2022/03/18 00:36:43;;;;;;;39.50;36.00;;;7.80;99.90;;;;;;5039105;28;20622;-84
2022/03/18 00:39:12;;;;;;;38.50;35.10;;;8.00;99.90;;;;;;5038735;28;20630;-84
2022/03/18 00:41:38;;;;;;;38.20;34.90;;;7.70;99.90;;;;;;5041602;28;20630;-84
2022/03/18 00:44:06;;;;;;;38.57;35.03;;;7.90;99.90;;;;;;5046783;28;20617;-85
2022/03/18 00:46:33;;;;;;;37.50;34.10;;;8.40;99.90;;;;;;5041578;28;20629;-85
2022/03/18 00:54:30;;;;;;;39.53;35.87;;;8.00;99.90;;;;;;5050755;28;20606;-85
2022/03/18 00:56:57;;;;;;;36.27;33.10;;;8.20;99.90;;;;;;5049889;28;20626;-84
2022/03/18 00:59:24;;;;;;;36.43;33.33;;;8.00;99.90;;;;;;5040929;28;20626;-84
2022/03/18 01:01:52;;;;;;;36.00;32.80;;;7.70;99.90;;;;;;5041619;28;20622;-84
2022/03/18 01:04:20;;;;;;;37.37;34.03;;;8.00;99.90;;;;;;5053033;28;20635;-85
2022/03/18 01:06:47;;;;;;;35.97;32.97;;;7.90;99.90;;;;;;5045469;28;20633;-84
2022/03/18 01:09:14;;;;;;;37.40;33.90;;;7.80;99.90;;;;;;5037808;28;20730;-84
2022/03/18 01:11:42;;;;;;;35.97;32.67;;;8.40;99.90;;;;;;5043546;28;20627;-85
2022/03/18 01:14:09;;;;;;;34.97;31.80;;;8.10;99.90;;;;;;5046357;28;20619;-84
2022/03/18 01:16:37;;;;;;;36.20;33.07;;;7.70;99.90;;;;;;5048719;28;20631;-84
2022/03/18 01:19:04;;;;;;;34.27;31.37;;;7.90;99.90;;;;;;5043672;28;20637;-84
2022/03/18 01:21:31;;;;;;;36.00;32.90;;;8.10;99.90;;;;;;5047018;28;20658;-83
2022/03/18 01:23:58;;;;;;;34.60;31.60;;;8.10;99.90;;;;;;5043863;28;20645;-84
2022/03/18 01:26:24;;;;;;;37.07;33.77;;;8.00;99.90;;;;;;5043205;28;20626;-84
2022/03/18 01:28:53;;;;;;;35.77;32.77;;;8.20;99.90;;;;;;5041707;28;21008;-83
2022/03/18 01:31:21;;;;;;;35.63;32.27;;;7.70;99.90;;;;;;5045754;28;20758;-83
2022/03/18 01:33:48;;;;;;;35.70;32.40;;;7.80;99.90;;;;;;5043961;28;20666;-84
2022/03/18 01:36:14;;;;;;;34.73;31.60;;;7.60;99.90;;;;;;5047394;28;20625;-84
2022/03/18 01:38:41;;;;;;;35.33;32.00;;;8.10;99.90;;;;;;5044802;28;20633;-83
2022/03/18 01:41:08;;;;;;;36.30;33.20;;;7.80;99.90;;;;;;5043357;28;20651;-84
2022/03/18 01:43:41;;;;;;;36.43;33.23;;;8.10;99.90;;;;;;5041826;28;20624;-84
2022/03/18 01:46:10;;;;;;;34.87;31.87;;;8.10;99.90;;;;;;5034587;28;21359;-83
2022/03/18 01:48:37;;;;;;;34.53;31.33;;;7.60;99.90;;;;;;5040416;28;20920;-84
2022/03/18 01:51:05;;;;;;;33.73;30.63;;;8.10;99.90;;;;;;5043669;28;20637;-84
2022/03/18 01:53:32;;;;;;;35.93;32.67;;;7.60;99.90;;;;;;5040502;28;21166;-84
2022/03/18 01:55:59;;;;;;;34.90;31.90;;;8.00;99.90;;;;;;5044072;28;20626;-83
2022/03/18 01:58:26;;;;;;;33.40;30.50;;;7.60;99.90;;;;;;5040021;28;21050;-83
2022/03/18 02:00:53;;;;;;;33.40;30.30;;;8.10;99.90;;;;;;5039550;28;20654;-84
2022/03/18 02:03:22;;;;;;;32.40;29.87;;;8.10;99.90;;;;;;5039805;28;21227;-85
2022/03/18 02:05:50;;;;;;;32.87;30.00;;;7.60;99.90;;;;;;5039072;28;20664;-85
2022/03/18 02:08:17;;;;;;;32.77;29.87;;;8.00;99.90;;;;;;5048440;28;20618;-84
2022/03/18 02:10:45;;;;;;;35.07;32.07;;;7.70;99.90;;;;;;5044151;28;20647;-85
2022/03/18 02:13:12;;;;;;;33.10;30.30;;;8.10;99.90;;;;;;5041356;28;20706;-85
2022/03/18 02:15:39;;;;;;;32.33;29.67;;;7.70;99.90;;;;;;5027842;28;21177;-85
2022/03/18 02:18:06;;;;;;;33.50;30.70;;;8.10;99.90;;;;;;5044169;28;21631;-85
2022/03/18 02:20:35;;;;;;;31.83;28.83;;;7.60;99.90;;;;;;5038277;28;21033;-84
2022/03/18 02:23:04;;;;;;;30.10;27.60;;;8.10;99.90;;;;;;5038990;28;20634;-84
2022/03/18 02:25:32;;;;;;;34.13;31.03;;;8.00;99.90;;;;;;5043658;28;20618;-85
2022/03/18 02:28:01;;;;;;;32.60;29.70;;;8.30;99.90;;;;;;5040517;28;20655;-84
2022/03/18 02:30:30;;;;;;;31.27;28.37;;;7.60;99.90;;;;;;5041069;28;21548;-85
2022/03/18 02:32:57;;;;;;;31.83;28.90;;;8.20;99.90;;;;;;5041080;28;20745;-84
2022/03/18 02:35:24;;;;;;;33.50;30.50;;;8.00;99.90;;;;;;5038675;28;21461;-84
2022/03/18 02:37:50;;;;;;;32.47;29.77;;;8.00;99.90;;;;;;5042473;28;20625;-84
2022/03/18 02:40:19;;;;;;;31.23;28.63;;;7.80;99.90;;;;;;5033285;28;21318;-85
2022/03/18 02:42:46;;;;;;;30.20;27.60;;;7.60;99.90;;;;;;5043356;28;20643;-85
2022/03/18 02:45:13;;;;;;;32.90;29.87;;;7.80;99.90;;;;;;5042508;28;20637;-85
2022/03/18 02:47:39;;;;;;;30.93;28.23;;;7.60;99.90;;;;;;5038405;28;20630;-85
2022/03/18 02:50:07;;;;;;;33.17;30.20;;;8.00;99.90;;;;;;5042074;28;21010;-85
2022/03/18 02:52:34;;;;;;;30.77;27.97;;;8.10;99.90;;;;;;5046628;28;20681;-86
2022/03/18 02:55:02;;;;;;;32.57;29.83;;;7.50;99.90;;;;;;5045784;28;20663;-85
2022/03/18 02:57:32;;;;;;;33.97;31.17;;;8.10;99.90;;;;;;5044153;28;20645;-86
2022/03/18 02:59:59;;;;;;;34.80;31.70;;;8.10;99.90;;;;;;5038516;28;20737;-84
2022/03/18 03:02:27;;;;;;;34.60;31.60;;;8.20;99.90;;;;;;5046539;28;20621;-85
2022/03/18 03:10:22;;;;;;;34.37;31.57;;;7.40;99.90;;;;;;5043806;28;20733;-84
2022/03/18 03:12:51;;;;;;;34.50;31.50;;;7.80;99.90;;;;;;5046848;28;20724;-84
2022/03/18 03:15:18;;;;;;;32.27;29.23;;;7.90;99.90;;;;;;5044018;28;20639;-84
2022/03/18 03:17:48;;;;;;;34.63;31.53;;;7.90;99.90;;;;;;5046444;28;20630;-84
2022/03/18 03:20:15;;;;;;;34.00;31.20;;;7.80;99.90;;;;;;5039079;28;20664;-85
2022/03/18 03:22:41;;;;;;;36.50;33.33;;;7.80;99.90;;;;;;5043479;28;20678;-84
2022/03/18 03:25:08;;;;;;;34.87;31.80;;;7.90;99.90;;;;;;5047442;28;21126;-84
2022/03/18 03:27:35;;;;;;;34.93;31.43;;;7.80;99.90;;;;;;5052431;28;20644;-84
2022/03/18 03:30:05;;;;;;;33.40;30.23;;;7.70;99.90;;;;;;5045017;28;20662;-84
2022/03/18 03:32:32;;;;;;;33.30;30.10;;;7.80;99.90;;;;;;5034962;28;21216;-84
2022/03/18 03:34:59;;;;;;;35.43;32.23;;;7.60;99.90;;;;;;5047527;28;20633;-85
2022/03/18 03:37:26;;;;;;;36.27;32.90;;;8.00;99.90;;;;;;5044642;28;21049;-84
2022/03/18 03:39:53;;;;;;;35.90;32.90;;;7.30;99.90;;;;;;5049556;28;20680;-85
2022/03/18 03:42:21;;;;;;;33.93;31.03;;;7.50;99.90;;;;;;5044156;28;21007;-85
2022/03/18 03:44:48;;;;;;;33.27;30.47;;;7.90;99.90;;;;;;5051668;28;20693;-84
2022/03/18 03:47:17;;;;;;;33.13;29.80;;;7.90;99.90;;;;;;5046748;28;21177;-85
2022/03/18 03:49:44;;;;;;;33.63;30.60;;;8.10;99.90;;;;;;5053939;28;20650;-84
2022/03/18 03:52:11;;;;;;;31.23;28.53;;;7.70;99.90;;;;;;5044655;28;20618;-84
2022/03/18 03:54:38;;;;;;;33.77;30.70;;;7.50;99.90;;;;;;5051522;28;20673;-85
2022/03/18 03:57:05;;;;;;;34.30;31.30;;;7.40;99.90;;;;;;5043127;28;21239;-84
2022/03/18 03:59:32;;;;;;;34.40;31.40;;;7.90;99.90;;;;;;5055188;28;20651;-84
2022/03/18 04:01:59;;;;;;;33.90;31.00;;;7.50;99.90;;;;;;5050081;28;20992;-85
2022/03/18 04:04:27;;;;;;;34.40;31.30;;;7.80;99.90;;;;;;5055750;28;20641;-85
2022/03/18 04:06:54;;;;;;;33.60;30.20;;;7.60;99.90;;;;;;5051285;28;20626;-84
2022/03/18 04:09:21;;;;;;;34.80;31.90;;;7.70;99.90;;;;;;5044578;28;20672;-85
2022/03/18 04:11:48;;;;;;;37.80;34.50;;;7.40;99.90;;;;;;5052079;28;20630;-85
2022/03/18 04:14:14;;;;;;;33.93;31.03;;;7.20;99.90;;;;;;5047087;28;21231;-84
2022/03/18 04:16:44;;;;;;;32.73;29.53;;;7.50;99.90;;;;;;5045111;28;20639;-84
2022/03/18 04:19:11;;;;;;;33.17;30.07;;;7.70;99.90;;;;;;5051315;28;20636;-84
2022/03/18 04:21:39;;;;;;;32.00;29.30;;;7.30;99.90;;;;;;5053606;28;20613;-85
2022/03/18 04:24:06;;;;;;;34.67;31.50;;;7.30;99.90;;;;;;5053511;28;20636;-84
2022/03/18 04:26:33;;;;;;;32.20;29.27;;;7.60;99.90;;;;;;5053027;28;20626;-84
2022/03/18 04:29:00;;;;;;;35.50;32.37;;;7.70;99.90;;;;;;5050085;28;20772;-84
2022/03/18 04:31:27;;;;;;;33.13;30.13;;;7.80;99.90;;;;;;5048711;28;20630;-85
2022/03/18 04:33:54;;;;;;;34.17;30.97;;;7.90;99.90;;;;;;5049996;28;20669;-85
2022/03/18 04:36:20;;;;;;;34.77;31.60;;;7.70;99.90;;;;;;5047028;28;20617;-83
2022/03/18 04:38:48;;;;;;;33.23;29.87;;;7.80;99.90;;;;;;5047858;28;20626;-84
2022/03/18 04:41:15;;;;;;;31.73;28.73;;;7.50;99.90;;;;;;5044586;28;20660;-85
2022/03/18 04:43:42;;;;;;;33.47;30.57;;;7.70;99.90;;;;;;5049470;28;20630;-83
2022/03/18 04:46:09;;;;;;;33.10;30.10;;;7.80;99.90;;;;;;5051409;28;20636;-84
2022/03/18 04:48:35;;;;;;;32.80;29.77;;;7.80;99.90;;;;;;5042955;28;20638;-83
2022/03/18 04:51:02;;;;;;;34.17;31.10;;;7.70;99.90;;;;;;5052410;28;20650;-84
2022/03/18 04:53:29;;;;;;;33.60;30.47;;;7.50;99.90;;;;;;5045766;28;20677;-84
2022/03/18 04:55:57;;;;;;;34.40;31.30;;;7.70;99.90;;;;;;5041244;28;20633;-83
2022/03/18 04:58:24;;;;;;;34.70;31.47;;;7.80;99.90;;;;;;5040631;28;20630;-84
2022/03/18 05:00:51;;;;;;;36.30;32.97;;;7.40;99.90;;;;;;5042658;28;20999;-84
2022/03/18 05:03:17;;;;;;;34.13;31.13;;;7.60;99.90;;;;;;5042524;28;20614;-84
2022/03/18 05:05:44;;;;;;;31.07;28.13;;;7.70;99.90;;;;;;5046716;28;20637;-83
2022/03/18 05:08:11;;;;;;;33.30;30.20;;;7.20;99.90;;;;;;5045254;28;21207;-84
2022/03/18 05:10:38;;;;;;;32.60;29.80;;;7.30;99.90;;;;;;5043442;28;20653;-82
2022/03/18 05:13:06;;;;;;;35.20;32.10;;;7.90;99.90;;;;;;5058191;28;20658;-83
2022/03/18 05:15:33;;;;;;;36.00;32.47;;;8.00;99.90;;;;;;5051122;28;20657;-83
2022/03/18 05:17:59;;;;;;;32.67;29.47;;;8.00;99.90;;;;;;5046179;28;21144;-83
2022/03/18 05:20:26;;;;;;;33.00;29.90;;;7.90;99.90;;;;;;5051321;28;20657;-84
2022/03/18 05:22:53;;;;;;;34.87;31.37;;;7.50;99.90;;;;;;5052070;28;20622;-84
2022/03/18 05:25:21;;;;;;;33.63;30.43;;;7.30;99.90;;;;;;5055888;28;20616;-85
2022/03/18 05:27:50;;;;;;;32.50;29.47;;;7.80;99.90;;;;;;5050284;28;20634;-84
2022/03/18 05:30:18;;;;;;;32.43;29.53;;;7.40;99.90;;;;;;5051974;28;21239;-83
2022/03/18 05:32:45;;;;;;;33.20;30.10;;;7.80;99.90;;;;;;5053401;28;20634;-84
2022/03/18 05:35:12;;;;;;;36.03;32.60;;;7.50;99.90;;;;;;5054524;28;20673;-84
2022/03/18 05:37:39;;;;;;;34.73;31.50;;;7.90;99.90;;;;;;5052036;28;20625;-84
2022/03/18 05:40:08;;;;;;;35.93;32.73;;;7.80;99.90;;;;;;5051283;28;20657;-85
2022/03/18 05:42:34;;;;;;;33.87;30.70;;;7.90;99.90;;;;;;5047454;28;20660;-84
2022/03/18 05:45:02;;;;;;;35.33;32.10;;;7.80;99.90;;;;;;5047188;28;20634;-86
2022/03/18 05:47:30;;;;;;;32.67;29.67;;;7.70;99.90;;;;;;5044594;28;21254;-83
2022/03/18 05:50:05;;;;;;;32.07;29.17;;;7.90;99.90;;;;;;5040585;28;21119;-83
2022/03/18 05:52:31;;;;;;;32.93;30.00;;;7.70;99.90;;;;;;5040216;28;20630;-83
2022/03/18 05:54:58;;;;;;;32.37;29.53;;;7.80;99.90;;;;;;5047317;28;20666;-84
2022/03/18 05:57:26;;;;;;;35.57;32.23;;;7.50;99.90;;;;;;5046512;28;20980;-83
2022/03/18 05:59:54;;;;;;;35.93;32.63;;;7.30;99.90;;;;;;5044391;28;20649;-82
2022/03/18 06:02:20;;;;;;;35.67;32.47;;;7.40;99.90;;;;;;5044948;28;20625;-83
2022/03/18 06:04:49;;;;;;;34.27;31.17;;;7.80;99.90;;;;;;5044698;28;21553;-85
2022/03/18 06:07:16;;;;;;;35.60;32.40;;;7.60;99.90;;;;;;5048990;28;20639;-85
2022/03/18 06:12:28;;;;;;;35.07;31.80;;;7.90;99.90;;;;;;5040229;28;20610;-85
2022/03/18 06:14:55;;;;;;;33.50;30.40;;;7.80;99.90;;;;;;5036052;28;20748;-86
2022/03/18 06:17:23;;;;;;;36.00;32.70;;;7.80;99.90;;;;;;5042009;28;20634;-85
2022/03/18 06:19:51;;;;;;;34.13;30.90;;;8.10;99.90;;;;;;5043042;28;20640;-85
2022/03/18 06:22:18;;;;;;;34.37;31.10;;;7.80;99.90;;;;;;5028145;28;20627;-85
2022/03/18 06:24:45;;;;;;;33.27;30.27;;;7.90;99.90;;;;;;5046508;28;20610;-85
2022/03/18 06:27:12;;;;;;;33.87;30.63;;;7.90;99.90;;;;;;5045168;28;20633;-85
2022/03/18 06:29:43;;;;;;;33.23;30.20;;;8.00;99.90;;;;;;5045603;28;20870;-84
2022/03/18 06:32:10;;;;;;;32.77;29.67;;;7.70;99.90;;;;;;5045108;28;20737;-84
2022/03/18 06:34:38;;;;;;;33.00;30.00;;;7.60;99.90;;;;;;5041728;28;20665;-84
2022/03/18 06:37:07;;;;;;;38.57;34.87;;;8.20;99.90;;;;;;5047228;28;20698;-85
2022/03/18 06:39:34;;;;;;;32.00;29.07;;;8.00;99.90;;;;;;5044408;28;20638;-86
2022/03/18 06:42:02;;;;;;;34.77;31.57;;;7.50;99.90;;;;;;5047834;28;20650;-84
2022/03/18 06:44:29;;;;;;;34.37;31.17;;;7.60;99.90;;;;;;5054537;28;20635;-84
2022/03/18 06:46:56;;;;;;;31.73;28.80;;;8.10;99.90;;;;;;5050006;28;20640;-85
2022/03/18 06:49:24;;;;;;;34.50;31.40;;;8.20;99.90;;;;;;5046917;28;20633;-84
2022/03/18 06:51:51;;;;;;;35.63;32.33;;;8.30;99.90;;;;;;5047310;28;20610;-83
2022/03/18 06:54:19;;;;;;;35.17;31.63;;;8.40;99.90;;;;;;5045067;28;20623;-84
2022/03/18 06:56:46;;;;;;;36.13;32.70;;;8.10;99.90;;;;;;5046071;28;20622;-84
2022/03/18 06:59:13;;;;;;;35.67;32.37;;;8.00;99.90;;;;;;5045482;28;20701;-85
2022/03/18 07:01:40;;;;;;;33.90;30.70;;;7.90;99.90;;;;;;5049681;28;21219;-85
2022/03/18 07:04:07;;;;;;;34.00;30.60;;;8.40;99.90;;;;;;5049471;28;21031;-84
2022/03/18 07:06:34;;;;;;;35.33;31.90;;;8.50;99.90;;;;;;5050484;28;21532;-84
2022/03/18 07:09:00;;;;;;;32.53;29.47;;;8.60;99.90;;;;;;5050761;28;20632;-85
2022/03/18 07:11:28;;;;;;;34.97;31.77;;;8.60;99.90;;;;;;5046329;28;20646;-84
2022/03/18 07:13:55;;;;;;;33.83;30.67;;;8.60;99.90;;;;;;5048059;28;20678;-83
2022/03/18 07:19:07;;;;;;;35.13;31.63;;;8.70;99.90;;;;;;5044130;28;21245;-84
2022/03/18 07:21:34;;;;;;;36.90;32.57;;;8.70;99.90;;;;;;5049686;28;20685;-84
2022/03/18 07:24:01;;;;;;;36.93;33.23;;;8.80;99.90;;;;;;5048310;28;20639;-85
2022/03/18 07:26:29;;;;;;;37.20;33.73;;;8.60;99.90;;;;;;5041349;28;20640;-84
2022/03/18 07:28:57;;;;;;;36.67;33.10;;;8.30;99.90;;;;;;5049635;28;20737;-85
2022/03/18 07:31:24;;;;;;;37.40;33.43;;;8.70;99.90;;;;;;5053746;28;20652;-86
2022/03/18 07:33:52;;;;;;;40.07;36.10;;;8.70;99.90;;;;;;5052082;28;20662;-85
2022/03/18 07:36:21;;;;;;;36.57;32.67;;;8.90;99.90;;;;;;5054145;28;20618;-85
2022/03/18 07:38:48;;;;;;;39.97;35.90;;;8.80;99.90;;;;;;5063629;28;20689;-85
2022/03/18 07:41:17;;;;;;;39.50;35.10;;;9.00;99.90;;;;;;5061944;28;21271;-83
2022/03/18 07:43:45;;;;;;;38.50;33.50;;;8.60;99.90;;;;;;5069780;28;21005;-84
2022/03/18 07:46:11;;;;;;;38.17;34.43;;;8.80;99.90;;;;;;5059868;28;20621;-84
2022/03/18 07:48:40;;;;;;;39.40;34.47;;;9.10;99.90;;;;;;5063665;28;20717;-83
2022/03/18 07:51:06;;;;;;;40.97;36.60;;;8.80;99.90;;;;;;5064840;28;20707;-84
2022/03/18 07:53:33;;;;;;;38.77;34.97;;;9.10;99.90;;;;;;5061608;28;20610;-84
2022/03/18 07:56:00;;;;;;;38.27;34.53;;;8.80;99.90;;;;;;5055810;28;20649;-84
2022/03/18 07:58:27;;;;;;;40.90;36.70;;;9.00;99.90;;;;;;5047064;28;20673;-85
2022/03/18 08:00:55;;;;;;;37.80;34.10;;;9.20;99.90;;;;;;5042389;28;20644;-84
2022/03/18 08:03:22;;;;;;;38.00;34.40;;;9.20;99.90;;;;;;5041535;28;20650;-84
2022/03/18 08:05:50;;;;;;;40.07;36.00;;;9.20;99.90;;;;;;5052504;28;21200;-83
2022/03/18 08:08:17;;;;;;;38.63;34.63;;;9.00;99.90;;;;;;5044096;28;20718;-86
2022/03/18 08:10:44;;;;;;;40.23;36.30;;;9.40;99.90;;;;;;5054733;28;20634;-84
2022/03/18 08:13:11;;;;;;;39.73;35.70;;;9.60;99.90;;;;;;5040911;28;20619;-85
2022/03/18 08:15:38;;;;;;;38.97;35.07;;;9.50;99.90;;;;;;5049141;28;20686;-85
2022/03/18 08:18:09;;;;;;;39.00;34.83;;;9.60;99.90;;;;;;5046533;28;20636;-86
2022/03/18 08:20:40;;;;;;;38.57;34.43;;;10.10;99.90;;;;;;5049736;28;20720;-85
2022/03/18 08:23:08;;;;;;;38.27;34.47;;;10.10;99.90;;;;;;5042644;28;20626;-85
2022/03/18 08:25:34;;;;;;;38.40;34.60;;;9.60;99.90;;;;;;5044754;28;20645;-85
2022/03/18 08:28:02;;;;;;;37.30;33.20;;;9.60;99.90;;;;;;5048616;28;21227;-85
2022/03/18 08:30:29;;;;;;;38.10;33.70;;;9.50;99.90;;;;;;5050001;28;20626;-86
2022/03/18 08:32:56;;;;;;;35.57;32.10;;;9.40;99.90;;;;;;5052117;28;20609;-85
2022/03/18 08:35:24;;;;;;;36.60;33.07;;;9.50;99.90;;;;;;5050146;28;20678;-85
2022/03/18 08:38:00;;;;;;;38.47;34.50;;;10.00;99.90;;;;;;5043555;28;20630;-85
2022/03/18 08:40:28;;;;;;;37.03;33.13;;;9.90;99.90;;;;;;5044556;28;20622;-85
2022/03/18 08:42:57;;;;;;;34.47;30.80;;;10.00;99.90;;;;;;5056214;28;20623;-86
2022/03/18 08:45:24;;;;;;;36.50;32.70;;;9.90;99.90;;;;;;5050745;28;21305;-85
2022/03/18 08:47:51;;;;;;;35.67;32.37;;;9.90;99.90;;;;;;5042606;28;20666;-85
2022/03/18 08:50:21;;;;;;;35.23;31.53;;;10.00;99.90;;;;;;5044388;28;20768;-85
2022/03/18 08:52:51;;;;;;;36.13;32.60;;;10.20;99.90;;;;;;5054417;28;20617;-85
2022/03/18 08:55:18;;;;;;;33.70;30.40;;;10.40;99.90;;;;;;5053523;28;20686;-85
2022/03/18 08:57:45;;;;;;;36.97;32.03;;;10.40;99.90;;;;;;5052224;28;21495;-83
2022/03/18 09:00:15;;;;;;;35.47;31.87;;;10.00;99.90;;;;;;5056666;28;20667;-84
2022/03/18 09:02:43;;;;;;;35.13;31.73;;;10.60;99.90;;;;;;5050228;28;20643;-86
2022/03/18 09:05:12;;;;;;;33.63;30.23;;;10.90;99.90;;;;;;5042523;28;20666;-85
2022/03/18 09:07:40;;;;;;;32.40;29.20;;;10.60;99.90;;;;;;5048573;28;20988;-85
2022/03/18 09:10:12;;;;;;;32.43;29.33;;;10.90;99.90;;;;;;5038096;28;20634;-86
2022/03/18 09:12:45;;;;;;;31.77;28.70;;;10.90;99.90;;;;;;5049098;28;20661;-84
2022/03/18 09:15:12;;;;;;;32.43;29.07;;;11.40;99.90;;;;;;5048488;28;20682;-85
2022/03/18 09:17:38;;;;;;;32.00;28.77;;;11.50;99.90;;;;;;5043472;28;20641;-84
2022/03/18 09:20:06;;;;;;;33.33;29.80;;;11.80;99.90;;;;;;5044803;28;20696;-85
2022/03/18 09:22:33;;;;;;;26.47;21.73;;;11.90;99.90;;;;;;5052691;28;20622;-85
2022/03/18 09:25:00;;;;;;;26.60;22.10;;;12.10;99.90;;;;;;5046087;28;20617;-86
2022/03/18 09:27:28;;;;;;;29.40;21.60;;;12.40;99.90;;;;;;5042948;28;20618;-86
2022/03/18 09:29:56;;;;;;;24.03;20.53;;;12.50;99.90;;;;;;5051805;28;20605;-84
2022/03/18 09:32:23;;;;;;;24.03;19.77;;;12.90;99.90;;;;;;5046394;28;20681;-86
2022/03/18 09:34:50;;;;;;;25.77;22.83;;;12.90;99.90;;;;;;5047549;28;20674;-86
2022/03/18 09:37:17;;;;;;;26.13;20.97;;;12.90;99.90;;;;;;5050623;28;20654;-85
2022/03/18 09:39:44;;;;;;;27.57;23.87;;;12.90;99.90;;;;;;5049782;28;20643;-85
2022/03/18 09:42:11;;;;;;;28.53;25.70;;;12.90;99.90;;;;;;5044825;28;20617;-86
2022/03/18 09:44:48;;;;;;;24.87;22.27;;;12.80;99.90;;;;;;5049310;28;20987;-85
2022/03/18 09:47:15;;;;;;;26.23;23.40;;;13.10;99.90;;;;;;5044186;28;21051;-85
2022/03/18 09:49:45;;;;;;;24.07;21.53;;;13.20;99.90;;;;;;5044755;28;20733;-86
2022/03/18 09:52:12;;;;;;;24.10;21.13;;;13.30;99.90;;;;;;5053528;28;20686;-87
2022/03/18 09:54:39;;;;;;;25.43;22.97;;;13.20;99.90;;;;;;5047721;28;20702;-85
2022/03/18 09:57:06;;;;;;;22.63;20.33;;;13.10;99.90;;;;;;5044056;28;20634;-86
2022/03/18 09:59:32;;;;;;;22.63;20.20;;;13.20;99.90;;;;;;5048541;28;21522;-87
2022/03/18 10:02:28;;;;;;;23.40;21.00;;;13.10;99.90;;;;;;5031423;28;20630;-86
2022/03/18 10:04:57;;;;;;;24.63;21.70;;;13.30;99.90;;;;;;5032695;28;20629;-86
2022/03/18 10:07:25;;;;;;;27.83;22.00;;;13.20;99.90;;;;;;5047366;28;20627;-85
2022/03/18 10:10:03;;;;;;;22.07;19.77;;;13.40;99.90;;;;;;5052284;28;20645;-86
2022/03/18 10:12:33;;;;;;;27.07;20.73;;;13.70;99.90;;;;;;5042743;28;20638;-86
2022/03/18 10:15:11;;;;;;;24.50;21.90;;;13.40;99.90;;;;;;5045091;28;21120;-85
2022/03/18 10:17:43;;;;;;;24.40;20.00;;;13.00;99.90;;;;;;5042757;28;20625;-84
2022/03/18 10:20:33;;;;;;;24.40;22.10;;;12.70;99.90;;;;;;5053330;28;20620;-84
2022/03/18 10:23:05;;;;;;;24.37;21.97;;;12.90;99.90;;;;;;5043965;28;20717;-85
2022/03/18 10:25:38;;;;;;;23.53;21.23;;;13.60;99.90;;;;;;5048538;28;20640;-85
2022/03/18 10:28:05;;;;;;;24.57;22.37;;;14.60;99.90;;;;;;5046960;28;20660;-85
2022/03/18 10:30:36;;;;;;;24.47;21.83;;;15.00;99.90;;;;;;5044691;28;20640;-86
2022/03/18 10:33:06;;;;;;;24.47;21.87;;;13.50;99.90;;;;;;5043397;28;20625;-85
2022/03/18 10:38:33;;;;;;;24.83;22.27;;;14.30;99.90;;;;;;5050315;28;20724;-86
2022/03/18 10:41:05;;;;;;;23.07;19.50;;;14.20;99.90;;;;;;5044918;28;20636;-86
2022/03/18 10:43:50;;;;;;;27.63;24.97;;;14.70;99.90;;;;;;5043551;28;20662;-86
2022/03/18 10:46:17;;;;;;;23.43;21.03;;;15.00;99.90;;;;;;5045018;28;20976;-86
2022/03/18 10:49:01;;;;;;;24.70;22.20;;;15.60;99.90;;;;;;5045141;28;21223;-86
2022/03/18 10:51:28;;;;;;;26.63;21.60;;;16.10;97.30;;;;;;5045816;28;20626;-86
2022/03/18 10:53:57;;;;;;;25.37;22.77;;;16.90;95.90;;;;;;5048804;28;21179;-87
2022/03/18 10:56:25;;;;;;;26.60;24.10;;;17.20;93.20;;;;;;5058966;28;20675;-87
2022/03/18 10:58:52;;;;;;;23.13;20.73;;;17.20;93.20;;;;;;5047986;28;20664;-87
2022/03/18 11:01:20;;;;;;;25.90;23.50;;;17.10;92.50;;;;;;5047570;28;20635;-87
2022/03/18 11:03:48;;;;;;;27.37;24.77;;;16.70;92.90;;;;;;5050495;28;20676;-87
2022/03/18 11:06:18;;;;;;;24.03;21.80;;;17.40;93.20;;;;;;5042584;28;20632;-87
2022/03/18 11:08:47;;;;;;;23.73;21.67;;;17.80;91.20;;;;;;5045342;28;21527;-87
2022/03/18 11:11:18;;;;;;;23.87;21.57;;;18.00;89.60;;;;;;5043928;28;21050;-87
2022/03/18 11:13:51;;;;;;;23.80;21.77;;;18.40;86.70;;;;;;5042800;28;20625;-87
2022/03/18 11:16:20;;;;;;;27.93;24.97;;;17.50;86.90;;;;;;5046711;28;20653;-86
2022/03/18 11:18:49;;;;;;;23.90;21.63;;;17.20;87.40;;;;;;5051606;28;20637;-87
2022/03/18 11:21:17;;;;;;;24.73;22.33;;;17.20;83.60;;;;;;5047488;28;20631;-86
2022/03/18 11:23:46;;;;;;;24.37;22.20;;;16.90;85.90;;;;;;5047146;28;20622;-85
2022/03/18 11:26:15;;;;;;;23.73;21.17;;;17.00;85.00;;;;;;5040220;28;21129;-86
2022/03/18 11:28:42;;;;;;;25.80;23.57;;;17.20;84.50;;;;;;5050171;28;20660;-87
2022/03/18 11:31:10;;;;;;;26.73;24.30;;;16.90;85.60;;;;;;5048659;28;20637;-87
2022/03/18 11:33:38;;;;;;;26.20;23.50;;;16.80;86.60;;;;;;5042900;28;20620;-86
2022/03/18 11:36:11;;;;;;;24.63;22.50;;;17.90;83.60;;;;;;5045952;28;20668;-86
2022/03/18 11:39:03;;;;;;;25.80;23.40;;;18.40;79.60;;;;;;5049694;28;21294;-86
2022/03/18 11:41:50;;;;;;;25.70;23.30;;;17.60;77.20;;;;;;5042903;28;20637;-86
2022/03/18 11:44:43;;;;;;;27.07;24.67;;;16.70;86.10;;;;;;5045856;28;20632;-86
2022/03/18 11:47:44;;;;;;;27.87;25.37;;;16.10;91.90;;;;;;5042931;28;20670;-86
2022/03/18 11:50:48;;;;;;;25.70;23.40;;;16.20;91.40;;;;;;5039829;28;20699;-86
2022/03/18 11:53:51;;;;;;;25.50;23.10;;;16.70;90.90;;;;;;5043813;28;20620;-86
2022/03/18 11:56:19;;;;;;;26.00;23.60;;;17.30;91.60;;;;;;5050150;28;20665;-85
2022/03/18 11:58:46;;;;;;;27.83;25.30;;;17.50;88.00;;;;;;5045952;28;20685;-86
2022/03/18 12:01:39;;;;;;;27.13;24.73;;;16.90;88.50;;;;;;5053735;28;20625;-87
2022/03/18 12:04:07;;;;;;;26.20;23.50;;;17.00;91.40;;;;;;5036229;28;20630;-86
2022/03/18 12:06:34;;;;;;;25.20;23.00;;;17.30;90.30;;;;;;5044533;28;21082;-86
2022/03/18 12:09:03;;;;;;;25.00;22.90;;;16.60;90.20;;;;;;5041365;28;20741;-86
2022/03/18 12:11:32;;;;;;;26.80;24.37;;;17.10;85.00;;;;;;5045826;28;20607;-86
2022/03/18 12:14:00;;;;;;;26.10;23.90;;;17.70;82.60;;;;;;5042694;28;20634;-85
2022/03/18 12:16:27;;;;;;;25.33;23.17;;;16.60;86.70;;;;;;5041695;28;21157;-85
2022/03/18 12:19:01;;;;;;;26.80;24.50;;;17.70;85.90;;;;;;5043592;28;20649;-86
2022/03/18 12:21:42;;;;;;;25.97;23.77;;;18.80;79.80;;;;;;5046436;28;20615;-85
2022/03/18 12:24:12;;;;;;;25.67;23.47;;;19.20;75.80;;;;;;5040437;28;20637;-87
2022/03/18 12:26:40;;;;;;;26.40;24.10;;;19.80;73.30;;;;;;5043123;28;21069;-86
2022/03/18 12:29:08;;;;;;;25.90;23.70;;;19.70;69.70;;;;;;5046780;28;20653;-87
2022/03/18 12:31:36;;;;;;;27.00;24.40;;;18.70;74.00;;;;;;5044033;28;20631;-87
2022/03/18 12:34:07;;;;;;;25.50;23.30;;;18.60;76.10;;;;;;5037414;28;20619;-87
2022/03/18 12:36:36;;;;;;;25.27;23.17;;;17.40;76.80;;;;;;5045245;28;20658;-87
2022/03/18 12:39:08;;;;;;;28.90;26.33;;;17.40;76.60;;;;;;5040150;28;21297;-86
2022/03/18 12:41:37;;;;;;;26.37;24.00;;;16.80;80.70;;;;;;5046493;28;20618;-87
2022/03/18 12:44:05;;;;;;;25.43;23.13;;;16.70;83.10;;;;;;5043925;28;20641;-87
2022/03/18 12:46:33;;;;;;;25.97;23.47;;;16.40;85.00;;;;;;5045363;28;21486;-87
2022/03/18 12:49:00;;;;;;;25.47;23.13;;;17.30;78.60;;;;;;5044361;28;20760;-87
2022/03/18 12:51:27;;;;;;;27.17;24.87;;;17.50;78.80;;;;;;5044047;28;20641;-86
2022/03/18 12:53:57;;;;;;;26.83;24.53;;;16.90;80.50;;;;;;5044500;28;20617;-86
2022/03/18 12:56:29;;;;;;;24.53;22.43;;;16.90;81.40;;;;;;5043211;28;20642;-86
2022/03/18 12:58:58;;;;;;;26.23;24.03;;;17.60;79.70;;;;;;5040205;28;20641;-86
2022/03/18 13:01:25;;;;;;;25.37;23.13;;;17.70;77.10;;;;;;5042947;28;20730;-85